Terminal Aerodrome Forecast
Issued by NWS Melbourne, FL

Home | Current Version | Previous Version | Text Only | Print | Product List | Glossary On
Versions: 1 2 3 4 5 6 7 8 9 10 11 12 13 14 15 16 17 18 19 20 21 22 23
467
FTUS42 KMLB 232225 AAD
TAFMLB
TAF AMD
KMLB 232225Z 2322/2418 03008KT P6SM VCSH FEW026 SCT040 BKN060
      TEMPO 2322/2324 5SM SHRA FEW015 BKN035
     FM240000 05009KT P6SM VCSH SCT030 BKN090 BKN250
     FM240600 04008KT P6SM VCSH SCT020 BKN050=

USA.gov is the U.S. government's official web portal to all federal, state and local government web resources and services.